MAPA DE AEROPUERTO

INFORMACIÓN METAR y TAF

METAR FOR LEAL
ADDS - METARS form results

(2042 UTC 27 January 2021)
Data provider http://aviationweather.gov/metar/data/
 
METAR text: LEAL 272030Z 30016KT CAVOK 20/11 Q1022 NOSIG
Conditions at: LEAL (ALICANTE/EL ALTE, ES) observed 2030 UTC 27 January 2021
Temperature: 20.0°C (68°F)
Dewpoint: 11.0°C (52°F) [RH = 56%]
Pressure (altimeter): 30.18 inches Hg (1022.0 mb)
Winds: from the WNW (300 degrees) at 18 MPH (16 knots; 8.2 m/s)
Visibility: 6 or more miles (10+ km)
Ceiling: ceiling and visibility are OK
Clouds: unknown
Weather: no significant weather observed at this time

METAR text: LEAL 272000Z 31017KT CAVOK 20/11 Q1022 NOSIG
Conditions at: LEAL (ALICANTE/EL ALTE, ES) observed 2000 UTC 27 January 2021
Temperature: 20.0°C (68°F)
Dewpoint: 11.0°C (52°F) [RH = 56%]
Pressure (altimeter): 30.18 inches Hg (1022.0 mb)
Winds: from the NW (310 degrees) at 20 MPH (17 knots; 8.7 m/s)
Visibility: 6 or more miles (10+ km)
Ceiling: ceiling and visibility are OK
Clouds: unknown
Weather: no significant weather observed at this time

Forecast for: LEAL (ALICANTE/EL ALTE, ES)
Text: TAF LEAL 271700Z 2718/2818 30015KT 9999 FEW060 TX26/2812Z TN13/2806Z
Forecast period: 1800 to 2200 UTC 27 January 2021
Forecast type: FROM: standard forecast or significant change
Winds: from the WNW (300 degrees) at 17 MPH (15 knots; 7.7 m/s)
Visibility: 6 or more miles (10+ km)
Ceiling: at least 12,000 feet AGL
Clouds: few clouds at 6000 feet AGL
Weather: no significant weather forecast for this period
Text: PROB40
Forecast period: 1800 to 2300 UTC 27 January 2021
Forecast type: TEMPORARY: The following changes expected for less than half the time period
Winds: from the WNW (300 degrees) at 17 MPH (15 knots; 7.7 m/s)
gusting to 29 MPH (25 knots; 12.9 m/s)
Visibility: missing
Ceiling: unknown
Clouds: missing
Weather: no significant weather forecast for this period
Text: TEMPO 2718/2723 30015G25KT
Forecast period: 2200 UTC 27 January 2021 to 0900 UTC 28 January 2021
Forecast type: BECOMING: Conditions expected to become as follows by 0000 UTC 28 January 2021
Winds: from the WNW (300 degrees) at 6 MPH (5 knots; 2.6 m/s)
Visibility: 6 or more miles (10+ km)
Ceiling: at least 12,000 feet AGL
Clouds: few clouds at 6000 feet AGL
Weather: no significant weather forecast for this period
Text: BECMG 2722/2724 30005KT
Forecast period: 0900 to 1800 UTC 28 January 2021
Forecast type: BECOMING: Conditions expected to become as follows by 1100 UTC 28 January 2021
Winds: from the W (280 degrees) at 17 MPH (15 knots; 7.7 m/s)
Visibility: 6 or more miles (10+ km)
Ceiling: at least 12,000 feet AGL
Clouds: few clouds at 6000 feet AGL
Weather: no significant weather forecast for this period